Terminal Aerodrome Forecast
Issued by NWS Albany, NY

Home | Current Version | Previous Version | Text Only | Print | Product List | Glossary On
Versions: 1 2 3 4 5 6 7 8 9 10 11 12 13 14 15 16 17 18 19 20 21 22 23 24 25 26 27 28 29 30 31 32
000
FTUS41 KALY 240700 AAA
TAFALB
TAF AMD
KALB 240725Z 2407/2506 35006KT P6SM VCSH SCT008 OVC015
      TEMPO 2407/2411 4SM -RA BR BKN008 OVC015
     FM241400 32010KT P6SM VCSH OVC035
     FM242100 32010KT P6SM SCT035 BKN080
     FM250100 31006KT P6SM SCT080=

USA.gov is the U.S. government's official web portal to all federal, state and local government web resources and services.